Time;durP1;ratioP1;P1;durP2;ratioP2;P2;SDS_P1;SDS_P2;PMS_P1;PMS_P2;Temp;Humidity;BMP_temperature;BMP_pressure;BME280_temperature;BME280_humidity;BME280_pressure;Samples;Min_cycle;Max_cycle;Signal;HPM_P1;HPM_P2
2021/12/08 00:01:40;;;;;;;6.03;0.80;;;;;;;;;;4994993;28;20100;-69
2021/12/08 00:04:07;;;;;;;10.25;1.38;;;;;;;;;;4994651;28;20042;-69
2021/12/08 00:06:33;;;;;;;7.47;1.40;;;;;;;;;;4995210;28;20058;-69
2021/12/08 00:09:49;;;;;;;4.95;1.00;;;;;;;;;;5009721;28;20057;-69
2021/12/08 00:14:32;;;;;;;6.32;1.52;;;;;;;;;;4994766;28;20065;-69
2021/12/08 00:16:58;;;;;;;7.45;1.42;;;;;;;;;;5009693;28;20054;-70
2021/12/08 00:19:27;;;;;;;7.60;1.05;;;;;;;;;;4994337;28;20513;-70
2021/12/08 00:21:54;;;;;;;6.97;1.17;;;;;;;;;;4994572;28;20483;-69
2021/12/08 00:24:20;;;;;;;5.53;0.90;;;;;;;;;;4994297;28;20349;-70
2021/12/08 00:26:47;;;;;;;8.32;1.40;;;;;;;;;;4994360;28;20466;-69
2021/12/08 00:29:13;;;;;;;5.28;1.00;;;;;;;;;;4994128;28;20495;-69
2021/12/08 00:31:40;;;;;;;8.50;1.73;;;;;;;;;;4994549;28;20050;-69
2021/12/08 00:34:07;;;;;;;6.68;1.02;;;;;;;;;;4994336;28;20466;-69
2021/12/08 00:36:42;;;;;;;9.13;1.40;;;;;;;;;;4993979;28;20046;-69
2021/12/08 00:39:08;;;;;;;9.82;1.73;;;;;;;;;;4994187;28;20121;-69
2021/12/08 00:41:35;;;;;;;5.43;0.90;;;;;;;;;;4993383;28;20120;-69
2021/12/08 00:44:01;;;;;;;9.80;1.70;;;;;;;;;;4994223;28;20046;-68
2021/12/08 00:46:28;;;;;;;9.27;2.25;;;;;;;;;;4994135;28;20050;-69
2021/12/08 00:48:54;;;;;;;9.15;1.33;;;;;;;;;;4994077;28;20058;-69
2021/12/08 00:51:21;;;;;;;4.22;0.75;;;;;;;;;;4994072;28;20457;-68
2021/12/08 00:53:48;;;;;;;8.75;1.25;;;;;;;;;;4994099;28;20054;-68
2021/12/08 00:56:15;;;;;;;8.65;1.73;;;;;;;;;;4993420;28;20495;-68
2021/12/08 00:58:42;;;;;;;7.95;0.93;;;;;;;;;;4993894;28;20129;-68
2021/12/08 01:01:26;;;;;;;5.28;1.10;;;;;;;;;;4993872;28;20081;-68
2021/12/08 01:03:53;;;;;;;10.18;1.30;;;;;;;;;;4993537;28;20050;-68
2021/12/08 01:06:19;;;;;;;12.85;1.83;;;;;;;;;;4993560;28;20092;-68
2021/12/08 01:08:46;;;;;;;9.85;1.17;;;;;;;;;;4993496;28;20050;-68
2021/12/08 01:11:14;;;;;;;6.10;1.25;;;;;;;;;;4993431;28;20097;-68
2021/12/08 01:13:41;;;;;;;9.55;1.00;;;;;;;;;;4993653;28;20363;-68
2021/12/08 01:16:07;;;;;;;8.82;0.90;;;;;;;;;;4993222;28;20435;-67
2021/12/08 01:18:34;;;;;;;8.60;1.60;;;;;;;;;;4993462;28;20069;-68
2021/12/08 01:21:03;;;;;;;7.70;0.77;;;;;;;;;;4993255;28;20050;-68
2021/12/08 01:23:29;;;;;;;5.40;0.85;;;;;;;;;;4993488;28;20050;-68
2021/12/08 01:25:57;;;;;;;3.23;0.70;;;;;;;;;;4993371;28;20482;-68
2021/12/08 01:28:24;;;;;;;6.07;1.02;;;;;;;;;;4993438;28;20116;-68
2021/12/08 01:30:52;;;;;;;8.00;1.80;;;;;;;;;;4991933;28;20046;-67
2021/12/08 01:33:18;;;;;;;;;;;;;;;;;;4992573;28;20046;-68
2021/12/08 01:35:44;;;;;;;9.50;1.30;;;;;;;;;;4993023;28;19922;-68
2021/12/08 01:38:11;;;;;;;13.02;1.27;;;;;;;;;;4992868;28;20046;-68
2021/12/08 01:40:38;;;;;;;7.43;0.95;;;;;;;;;;4993172;28;20138;-68
2021/12/08 01:43:12;;;;;;;7.18;1.08;;;;;;;;;;4992875;28;20050;-69
2021/12/08 01:45:57;;;;;;;8.85;1.20;;;;;;;;;;5007892;28;20100;-68
2021/12/08 01:48:24;;;;;;;10.05;1.13;;;;;;;;;;4992743;28;20557;-69
2021/12/08 01:50:52;;;;;;;3.73;0.87;;;;;;;;;;4993123;28;20503;-69
2021/12/08 01:53:19;;;;;;;5.70;0.98;;;;;;;;;;4991976;28;20054;-68
2021/12/08 01:55:46;;;;;;;9.98;1.48;;;;;;;;;;4991240;28;20116;-68
2021/12/08 01:58:13;;;;;;;4.03;1.00;;;;;;;;;;4992890;28;20050;-68
2021/12/08 02:00:45;;;;;;;9.65;1.48;;;;;;;;;;4992883;28;20042;-68
2021/12/08 02:03:11;;;;;;;7.43;1.60;;;;;;;;;;4992876;28;20047;-68
2021/12/08 02:05:38;;;;;;;7.22;1.77;;;;;;;;;;4992467;28;20078;-68
2021/12/08 02:08:05;;;;;;;9.05;1.60;;;;;;;;;;4992508;28;20058;-68
2021/12/08 02:10:32;;;;;;;8.90;1.13;;;;;;;;;;4992719;28;20520;-68
2021/12/08 02:12:58;;;;;;;9.57;1.83;;;;;;;;;;4992755;28;20054;-68
2021/12/08 02:15:25;;;;;;;9.73;1.30;;;;;;;;;;4992942;28;20054;-68
2021/12/08 02:17:53;;;;;;;6.50;1.40;;;;;;;;;;4992547;28;20046;-68
2021/12/08 02:20:21;;;;;;;5.30;1.17;;;;;;;;;;4992413;28;20046;-68
2021/12/08 02:22:47;;;;;;;8.05;0.98;;;;;;;;;;4992406;28;20105;-68
2021/12/08 02:25:16;;;;;;;10.85;1.52;;;;;;;;;;4992418;28;20081;-68
2021/12/08 02:27:42;;;;;;;9.65;1.20;;;;;;;;;;4992233;28;20108;-68
2021/12/08 02:30:21;;;;;;;9.05;1.45;;;;;;;;;;4992515;28;20050;-68
2021/12/08 02:46:45;;;;;;;10.00;2.10;;;;;;;;;;4992589;28;20120;-72
2021/12/08 02:49:12;;;;;;;15.18;1.52;;;;;;;;;;4992167;28;20109;-71
2021/12/08 02:51:39;;;;;;;10.52;1.60;;;;;;;;;;4992285;28;20046;-70
2021/12/08 02:54:05;;;;;;;9.15;1.58;;;;;;;;;;4992445;28;20046;-70
2021/12/08 02:56:32;;;;;;;15.25;1.63;;;;;;;;;;4991703;28;20498;-70
2021/12/08 02:58:59;;;;;;;12.98;2.22;;;;;;;;;;4991903;28;20498;-70
2021/12/08 03:01:26;;;;;;;13.55;2.55;;;;;;;;;;4992310;28;20046;-71
2021/12/08 03:03:53;;;;;;;14.02;2.10;;;;;;;;;;4991990;28;20054;-70
2021/12/08 03:06:20;;;;;;;11.10;1.75;;;;;;;;;;4995795;28;20102;-70
2021/12/08 03:08:47;;;;;;;8.27;1.70;;;;;;;;;;4994772;28;20113;-72
2021/12/08 03:11:14;;;;;;;10.85;1.75;;;;;;;;;;4995796;28;20104;-72
2021/12/08 03:13:42;;;;;;;10.55;1.90;;;;;;;;;;4995612;28;20047;-73
2021/12/08 03:16:08;;;;;;;;;;;;;;;;;;4996260;28;20092;-71
2021/12/08 03:18:37;;;;;;;10.82;1.98;;;;;;;;;;4995608;28;20282;-71
2021/12/08 03:21:05;;;;;;;11.88;1.63;;;;;;;;;;4995780;28;20050;-71
2021/12/08 03:23:57;;;;;;;12.43;3.40;;;;;;;;;;4995474;28;20046;-71
2021/12/08 03:26:27;;;;;;;8.93;1.75;;;;;;;;;;4995236;28;20054;-71
2021/12/08 03:29:02;;;;;;;16.27;1.52;;;;;;;;;;4995685;28;20124;-72
2021/12/08 03:31:34;;;;;;;15.02;1.83;;;;;;;;;;5010279;28;20047;-71
2021/12/08 03:34:00;;;;;;;11.23;2.63;;;;;;;;;;4995606;28;20054;-71
2021/12/08 03:36:27;;;;;;;15.48;1.85;;;;;;;;;;4993944;28;20552;-71
2021/12/08 03:38:53;;;;;;;10.02;1.45;;;;;;;;;;4995174;28;20050;-71
2021/12/08 03:41:20;;;;;;;11.05;2.33;;;;;;;;;;4995390;28;20081;-72
2021/12/08 03:43:46;;;;;;;15.40;1.95;;;;;;;;;;4993900;28;20054;-72
2021/12/08 03:46:16;;;;;;;15.55;2.22;;;;;;;;;;4994899;28;20050;-72
2021/12/08 03:48:49;;;;;;;11.75;2.05;;;;;;;;;;4995140;28;20066;-71
2021/12/08 03:51:16;;;;;;;10.90;2.05;;;;;;;;;;4994009;28;20054;-72
2021/12/08 03:53:43;;;;;;;6.60;1.23;;;;;;;;;;4980446;28;20391;-71
2021/12/08 03:56:09;;;;;;;12.07;1.55;;;;;;;;;;4994842;28;20062;-71
2021/12/08 03:58:36;;;;;;;8.75;1.00;;;;;;;;;;4994684;28;20499;-71
2021/12/08 04:01:03;;;;;;;9.38;1.42;;;;;;;;;;4994776;28;20050;-71
2021/12/08 04:03:31;;;;;;;9.70;1.67;;;;;;;;;;4994807;28;20046;-71
2021/12/08 04:06:03;;;;;;;11.85;1.88;;;;;;;;;;5009563;28;20046;-71
2021/12/08 04:08:34;;;;;;;8.85;1.20;;;;;;;;;;5009891;28;20054;-71
2021/12/08 04:11:03;;;;;;;9.13;1.60;;;;;;;;;;4994871;28;20050;-72
2021/12/08 04:13:50;;;;;;;15.27;2.22;;;;;;;;;;4994623;28;20050;-72
2021/12/08 04:16:18;;;;;;;7.88;1.20;;;;;;;;;;4993388;28;20057;-72
2021/12/08 04:18:44;;;;;;;;;;;;;;;;;;4995156;28;20054;-72
2021/12/08 04:21:12;;;;;;;10.23;1.73;;;;;;;;;;4994440;28;19926;-72
2021/12/08 04:23:40;;;;;;;8.93;1.42;;;;;;;;;;4994721;28;20058;-72
2021/12/08 04:26:09;;;;;;;15.40;1.90;;;;;;;;;;4994425;28;20061;-72
2021/12/08 04:28:35;;;;;;;12.23;1.77;;;;;;;;;;4994284;28;20050;-71
2021/12/08 04:31:09;;;;;;;13.20;2.17;;;;;;;;;;4994495;28;20054;-71
2021/12/08 04:33:36;;;;;;;13.52;1.95;;;;;;;;;;4994515;28;20160;-71
2021/12/08 04:36:06;;;;;;;11.10;1.85;;;;;;;;;;4994298;28;20054;-71
2021/12/08 04:38:37;;;;;;;9.43;1.42;;;;;;;;;;4994146;28;20082;-71
2021/12/08 04:41:07;;;;;;;9.15;1.42;;;;;;;;;;4992944;28;20047;-70
2021/12/08 04:43:45;;;;;;;11.82;1.88;;;;;;;;;;4994667;28;20050;-71
2021/12/08 04:46:52;;;;;;;5.97;1.75;;;;;;;;;;5008998;28;20046;-71
2021/12/08 05:09:14;;;;;;;13.00;2.15;;;;;;;;;;4971637;28;20086;-71
2021/12/08 05:11:43;;;;;;;13.50;1.75;;;;;;;;;;4981945;28;20120;-71
2021/12/08 05:14:30;;;;;;;7.65;1.83;;;;;;;;;;4993310;28;20077;-71
2021/12/08 05:17:02;;;;;;;11.52;1.60;;;;;;;;;;4993427;28;20051;-71
2021/12/08 05:19:29;;;;;;;16.08;2.10;;;;;;;;;;4992237;28;20043;-71
2021/12/08 05:22:08;;;;;;;16.63;1.80;;;;;;;;;;4992236;28;20050;-71
2021/12/08 05:24:38;;;;;;;5.32;1.35;;;;;;;;;;4993253;28;20046;-70
2021/12/08 05:27:06;;;;;;;10.82;1.25;;;;;;;;;;4992976;28;20096;-70
2021/12/08 05:29:44;;;;;;;14.48;1.55;;;;;;;;;;4993443;28;20173;-70
2021/12/08 05:32:11;;;;;;;12.43;3.00;;;;;;;;;;4993782;28;20054;-70
2021/12/08 05:34:38;;;;;;;6.95;1.13;;;;;;;;;;4992877;28;20086;-70
2021/12/08 05:37:05;;;;;;;16.85;2.35;;;;;;;;;;4993086;28;20050;-70
2021/12/08 05:39:32;;;;;;;10.90;2.13;;;;;;;;;;4992835;28;20101;-70
2021/12/08 05:42:03;;;;;;;14.05;2.08;;;;;;;;;;4993097;28;20100;-70
2021/12/08 05:44:29;;;;;;;10.05;1.63;;;;;;;;;;4992966;28;20042;-70
2021/12/08 05:46:57;;;;;;;11.52;2.08;;;;;;;;;;4993023;28;20093;-70
2021/12/08 05:49:24;;;;;;;14.20;2.13;;;;;;;;;;4992964;28;20626;-70
2021/12/08 05:51:52;;;;;;;8.85;1.92;;;;;;;;;;4992778;28;20058;-70
2021/12/08 05:54:30;;;;;;;20.20;2.55;;;;;;;;;;4992693;28;20104;-70
2021/12/08 05:56:57;;;;;;;11.75;2.05;;;;;;;;;;4992485;28;20506;-69
2021/12/08 05:59:24;;;;;;;14.07;2.22;;;;;;;;;;4992720;28;20462;-69
2021/12/08 06:01:57;;;;;;;11.35;1.90;;;;;;;;;;4992632;28;20050;-69
2021/12/08 06:04:26;;;;;;;8.50;1.45;;;;;;;;;;4992615;28;20093;-69
2021/12/08 06:06:53;;;;;;;9.60;2.08;;;;;;;;;;4992467;28;20050;-69
2021/12/08 06:09:21;;;;;;;15.13;2.07;;;;;;;;;;4992773;28;20450;-69
2021/12/08 06:11:48;;;;;;;12.18;1.80;;;;;;;;;;4992612;28;20054;-68
2021/12/08 06:14:15;;;;;;;18.40;2.90;;;;;;;;;;4992552;28;20050;-69
2021/12/08 06:16:43;;;;;;;11.32;1.95;;;;;;;;;;4992530;28;20054;-68
2021/12/08 06:19:10;;;;;;;;;;;;;;;;;;4992701;28;20100;-68
2021/12/08 06:21:36;;;;;;;12.20;1.90;;;;;;;;;;4992654;28;19925;-68
2021/12/08 06:24:05;;;;;;;13.98;1.73;;;;;;;;;;4992246;28;20054;-68
2021/12/08 06:26:31;;;;;;;10.35;1.98;;;;;;;;;;4992613;28;20050;-68
2021/12/08 06:28:59;;;;;;;15.38;1.60;;;;;;;;;;4992623;28;20108;-68
2021/12/08 06:31:26;;;;;;;13.68;2.00;;;;;;;;;;4992535;28;20046;-68
2021/12/08 06:33:53;;;;;;;12.30;2.17;;;;;;;;;;4992274;28;20050;-68
2021/12/08 06:36:23;;;;;;;10.25;1.52;;;;;;;;;;4992427;28;20394;-67
2021/12/08 06:38:50;;;;;;;10.68;2.50;;;;;;;;;;4993451;28;20046;-68
2021/12/08 06:41:19;;;;;;;10.25;1.60;;;;;;;;;;4996508;28;20568;-68
2021/12/08 06:43:48;;;;;;;11.57;1.75;;;;;;;;;;4996571;28;20046;-68
2021/12/08 06:46:15;;;;;;;10.45;1.80;;;;;;;;;;4995988;28;20050;-68
2021/12/08 06:48:45;;;;;;;9.73;1.70;;;;;;;;;;4996401;28;20100;-68
2021/12/08 06:51:16;;;;;;;12.15;1.92;;;;;;;;;;4995694;28;20502;-68
2021/12/08 06:53:44;;;;;;;12.82;2.50;;;;;;;;;;4996087;28;20101;-69
2021/12/08 06:56:18;;;;;;;15.35;2.22;;;;;;;;;;4995859;28;20729;-68
2021/12/08 06:58:47;;;;;;;10.52;1.70;;;;;;;;;;4995848;28;20042;-68
2021/12/08 07:01:43;;;;;;;21.35;2.55;;;;;;;;;;4984836;28;20121;-68
2021/12/08 07:07:01;;;;;;;9.50;1.40;;;;;;;;;;4977883;28;20541;-68
2021/12/08 07:09:42;;;;;;;10.20;1.60;;;;;;;;;;4984511;28;20053;-68
2021/12/08 07:12:14;;;;;;;10.07;1.88;;;;;;;;;;4977193;28;20137;-67
2021/12/08 07:14:41;;;;;;;18.00;2.72;;;;;;;;;;4976068;28;20055;-67
2021/12/08 07:17:10;;;;;;;;;;;;;;;;;;4994336;28;20054;-67
2021/12/08 07:19:44;;;;;;;13.07;2.35;;;;;;;;;;4995551;28;20400;-67
2021/12/08 07:22:13;;;;;;;12.75;3.30;;;;;;;;;;4995515;28;20523;-66
2021/12/08 07:24:41;;;;;;;12.52;1.67;;;;;;;;;;4995806;28;20097;-66
2021/12/08 07:27:09;;;;;;;12.02;2.03;;;;;;;;;;4995567;28;20092;-67
2021/12/08 07:29:37;;;;;;;15.13;2.03;;;;;;;;;;4989163;28;20059;-67
2021/12/08 07:32:06;;;;;;;12.38;1.75;;;;;;;;;;4976432;28;20191;-67
2021/12/08 07:34:35;;;;;;;9.77;1.77;;;;;;;;;;4989888;28;20109;-67
2021/12/08 07:37:04;;;;;;;10.52;2.13;;;;;;;;;;5010207;28;20645;-67
2021/12/08 07:39:32;;;;;;;10.02;1.98;;;;;;;;;;4995095;28;20553;-67
2021/12/08 07:42:02;;;;;;;9.93;2.25;;;;;;;;;;4986703;28;20098;-67
2021/12/08 07:44:29;;;;;;;10.95;1.67;;;;;;;;;;4990504;28;20085;-68
2021/12/08 07:46:59;;;;;;;8.75;1.25;;;;;;;;;;4994484;28;20056;-67
2021/12/08 07:49:28;;;;;;;10.57;1.70;;;;;;;;;;4994354;28;20062;-67
2021/12/08 07:51:54;;;;;;;12.55;1.70;;;;;;;;;;4994662;28;20124;-67
2021/12/08 07:54:21;;;;;;;16.83;2.42;;;;;;;;;;4994932;28;20499;-66
2021/12/08 07:56:49;;;;;;;8.67;1.93;;;;;;;;;;4994754;28;20128;-67
2021/12/08 07:59:17;;;;;;;12.25;2.35;;;;;;;;;;4994736;28;20442;-66
2021/12/08 08:01:50;;;;;;;14.35;2.22;;;;;;;;;;4994722;28;20069;-67
2021/12/08 08:04:18;;;;;;;9.57;1.83;;;;;;;;;;4995131;28;20109;-67
2021/12/08 08:06:49;;;;;;;9.25;2.05;;;;;;;;;;4994990;28;20050;-67
2021/12/08 08:09:20;;;;;;;11.75;2.40;;;;;;;;;;4995019;28;20046;-67
2021/12/08 08:11:54;;;;;;;19.65;3.30;;;;;;;;;;4994986;28;20085;-67
2021/12/08 08:14:21;;;;;;;8.40;2.20;;;;;;;;;;4994541;28;20189;-67
2021/12/08 08:16:55;;;;;;;11.20;2.28;;;;;;;;;;4994925;28;20070;-67
2021/12/08 08:19:27;;;;;;;15.30;2.88;;;;;;;;;;4994502;28;20499;-67
2021/12/08 08:21:59;;;;;;;15.40;2.88;;;;;;;;;;4994533;28;20473;-67
2021/12/08 08:24:25;;;;;;;11.90;2.30;;;;;;;;;;4994716;28;20089;-67
2021/12/08 08:26:53;;;;;;;13.60;2.50;;;;;;;;;;4994451;28;20050;-68
2021/12/08 08:29:20;;;;;;;;;;;;;;;;;;4994650;28;20046;-68
2021/12/08 08:31:55;;;;;;;13.90;3.20;;;;;;;;;;4993403;28;19926;-68
2021/12/08 08:34:22;;;;;;;27.23;8.70;;;;;;;;;;4994150;28;20098;-68
2021/12/08 08:36:49;;;;;;;25.67;8.20;;;;;;;;;;4994678;28;20505;-68
2021/12/08 08:39:20;;;;;;;29.67;12.10;;;;;;;;;;4994185;28;20486;-68
2021/12/08 08:41:48;;;;;;;17.92;6.40;;;;;;;;;;4994469;28;20105;-68
2021/12/08 08:44:17;;;;;;;31.30;12.88;;;;;;;;;;4994171;28;20054;-68
2021/12/08 08:46:51;;;;;;;23.92;7.20;;;;;;;;;;4994017;28;20125;-68
2021/12/08 08:49:20;;;;;;;39.30;13.68;;;;;;;;;;4994186;28;20085;-68
2021/12/08 08:51:49;;;;;;;24.40;8.85;;;;;;;;;;4994073;28;20058;-68
2021/12/08 08:54:20;;;;;;;15.38;5.00;;;;;;;;;;4994154;28;20101;-68
2021/12/08 08:56:58;;;;;;;16.25;3.20;;;;;;;;;;5008744;28;20054;-67
2021/12/08 08:59:25;;;;;;;;;;;;;;;;;;4994426;28;20380;-67
2021/12/08 09:01:54;;;;;;;13.57;2.58;;;;;;;;;;4993382;28;19980;-67
2021/12/08 09:04:41;;;;;;;5.88;1.90;;;;;;;;;;4993655;28;20550;-67
2021/12/08 09:07:12;;;;;;;12.90;2.13;;;;;;;;;;4993571;28;20051;-67
2021/12/08 09:09:40;;;;;;;13.07;2.70;;;;;;;;;;4993550;28;20054;-67
2021/12/08 09:12:06;;;;;;;;;;;;;;;;;;4993800;28;20391;-67
2021/12/08 09:14:35;;;;;;;14.85;2.67;;;;;;;;;;4993807;28;19925;-67
2021/12/08 09:17:11;;;;;;;11.50;2.63;;;;;;;;;;4993714;28;20137;-67
2021/12/08 09:19:42;;;;;;;11.50;2.70;;;;;;;;;;4993433;28;20137;-67
2021/12/08 09:22:15;;;;;;;12.38;2.58;;;;;;;;;;4993418;28;20105;-68
2021/12/08 09:24:54;;;;;;;15.48;3.22;;;;;;;;;;4993577;28;20112;-68
2021/12/08 09:27:29;;;;;;;16.75;2.45;;;;;;;;;;4993560;28;20128;-69
2021/12/08 09:29:58;;;;;;;14.82;2.17;;;;;;;;;;4993351;28;20124;-69
2021/12/08 09:32:32;;;;;;;13.10;2.63;;;;;;;;;;4993214;28;20414;-69
2021/12/08 09:35:01;;;;;;;14.43;2.83;;;;;;;;;;4993105;28;20125;-69
2021/12/08 09:37:29;;;;;;;12.13;2.20;;;;;;;;;;4993074;28;20096;-69
2021/12/08 09:40:05;;;;;;;8.88;2.15;;;;;;;;;;4993041;28;20101;-69
2021/12/08 09:42:33;;;;;;;16.73;2.63;;;;;;;;;;4993005;28;20089;-69
2021/12/08 09:45:04;;;;;;;18.17;2.55;;;;;;;;;;4992795;28;20414;-69
2021/12/08 09:47:31;;;;;;;16.13;3.10;;;;;;;;;;4992837;28;20572;-68
2021/12/08 09:50:03;;;;;;;10.77;1.98;;;;;;;;;;4992792;28;20046;-68
2021/12/08 09:52:30;;;;;;;11.30;2.22;;;;;;;;;;4993007;28;20081;-68
2021/12/08 09:54:58;;;;;;;9.60;1.70;;;;;;;;;;4992819;28;20101;-68
2021/12/08 09:57:25;;;;;;;14.10;2.08;;;;;;;;;;4992590;28;20506;-68
2021/12/08 09:59:52;;;;;;;10.40;2.07;;;;;;;;;;4992513;28;20449;-68
2021/12/08 10:02:26;;;;;;;14.07;2.28;;;;;;;;;;4992921;28;20043;-68
2021/12/08 10:04:55;;;;;;;14.73;2.50;;;;;;;;;;4992615;28;20510;-68
2021/12/08 10:07:22;;;;;;;12.15;1.80;;;;;;;;;;4992910;28;20180;-68
2021/12/08 10:09:49;;;;;;;11.50;2.28;;;;;;;;;;4992853;28;20050;-68
2021/12/08 10:12:16;;;;;;;12.77;2.75;;;;;;;;;;4992486;28;20172;-68
2021/12/08 10:14:46;;;;;;;9.80;2.55;;;;;;;;;;4991665;28;20058;-68
2021/12/08 10:17:16;;;;;;;6.90;1.40;;;;;;;;;;4992932;28;20058;-67
2021/12/08 10:19:43;;;;;;;10.95;2.03;;;;;;;;;;4992360;28;20568;-68
2021/12/08 10:22:19;;;;;;;11.88;1.42;;;;;;;;;;4992664;28;20430;-67
2021/12/08 10:25:06;;;;;;;14.07;1.95;;;;;;;;;;4992653;28;20412;-67
2021/12/08 10:27:53;;;;;;;9.43;1.40;;;;;;;;;;4992338;28;20490;-67
2021/12/08 10:30:21;;;;;;;9.30;2.17;;;;;;;;;;4992332;28;20054;-67
2021/12/08 10:32:49;;;;;;;12.40;1.92;;;;;;;;;;4992534;28;20101;-67
2021/12/08 10:35:39;;;;;;;12.93;1.80;;;;;;;;;;4992482;28;20097;-67
2021/12/08 10:38:06;;;;;;;12.43;1.77;;;;;;;;;;4992548;28;20057;-67
2021/12/08 10:40:32;;;;;;;10.95;2.97;;;;;;;;;;4992444;28;20556;-67
2021/12/08 10:43:11;;;;;;;9.90;2.15;;;;;;;;;;4992384;28;20088;-67
2021/12/08 10:45:37;;;;;;;10.82;2.00;;;;;;;;;;4992124;28;20101;-67
2021/12/08 10:48:05;;;;;;;10.15;1.80;;;;;;;;;;4992002;28;20100;-67
2021/12/08 10:56:12;;;;;;;10.68;2.00;;;;;;;;;;4991960;28;20120;-67
2021/12/08 10:58:47;;;;;;;12.65;1.55;;;;;;;;;;4992156;28;20054;-67
2021/12/08 11:01:26;;;;;;;6.35;2.72;;;;;;;;;;4992299;28;20112;-67
2021/12/08 11:04:01;;;;;;;10.68;2.13;;;;;;;;;;4992148;28;20072;-67
2021/12/08 11:06:31;;;;;;;9.15;1.75;;;;;;;;;;4992221;28;20391;-67
2021/12/08 11:08:57;;;;;;;12.70;2.95;;;;;;;;;;4992937;28;20054;-67
2021/12/08 11:11:28;;;;;;;18.30;3.80;;;;;;;;;;4991963;28;20046;-66
2021/12/08 11:13:57;;;;;;;11.60;1.70;;;;;;;;;;4992235;28;20055;-67
2021/12/08 11:16:29;;;;;;;10.38;1.85;;;;;;;;;;4992201;28;20050;-67
2021/12/08 11:19:04;;;;;;;12.10;2.10;;;;;;;;;;4992033;28;20073;-67
2021/12/08 11:21:36;;;;;;;13.50;2.50;;;;;;;;;;4991887;28;20422;-66
2021/12/08 11:24:11;;;;;;;;;;;;;;;;;;4992213;28;20477;-67
2021/12/08 11:26:41;;;;;;;8.75;2.15;;;;;;;;;;4995635;28;19925;-66
2021/12/08 11:29:15;;;;;;;8.20;2.08;;;;;;;;;;4995642;28;20054;-67
2021/12/08 11:32:01;;;;;;;6.88;1.58;;;;;;;;;;4995370;28;20564;-66
2021/12/08 11:34:32;;;;;;;9.00;1.00;;;;;;;;;;4995271;28;20506;-67
2021/12/08 11:37:02;;;;;;;9.52;2.05;;;;;;;;;;4995629;28;20109;-66
2021/12/08 11:39:32;;;;;;;9.50;2.13;;;;;;;;;;4995656;28;20050;-66
2021/12/08 11:42:02;;;;;;;8.68;1.52;;;;;;;;;;4995315;28;20046;-66
2021/12/08 11:44:30;;;;;;;7.82;2.10;;;;;;;;;;4995669;28;20434;-66
2021/12/08 11:47:02;;;;;;;12.05;2.15;;;;;;;;;;4995397;28;20082;-66
2021/12/08 11:49:28;;;;;;;7.95;1.40;;;;;;;;;;4995636;28;20050;-66
2021/12/08 11:51:57;;;;;;;7.00;1.80;;;;;;;;;;4995394;28;20058;-64
2021/12/08 11:54:32;;;;;;;7.63;1.75;;;;;;;;;;4995053;28;20125;-66
2021/12/08 11:57:00;;;;;;;11.15;1.73;;;;;;;;;;4994773;28;20399;-66
2021/12/08 11:59:27;;;;;;;8.52;1.27;;;;;;;;;;4995035;28;20109;-66
2021/12/08 12:01:54;;;;;;;7.55;1.45;;;;;;;;;;4995098;28;20046;-65
2021/12/08 12:04:20;;;;;;;7.05;1.20;;;;;;;;;;4994909;28;20483;-66
2021/12/08 12:06:47;;;;;;;7.05;1.50;;;;;;;;;;4994826;28;20458;-66
2021/12/08 12:09:13;;;;;;;5.78;1.08;;;;;;;;;;4994653;28;20068;-65
2021/12/08 12:11:53;;;;;;;6.88;1.25;;;;;;;;;;4994724;28;20054;-65
2021/12/08 12:14:20;;;;;;;5.97;1.67;;;;;;;;;;4994908;28;20137;-66
2021/12/08 12:16:47;;;;;;;9.60;2.22;;;;;;;;;;4994600;28;20490;-65
2021/12/08 12:19:16;;;;;;;5.20;2.08;;;;;;;;;;4994430;28;20478;-65
2021/12/08 12:21:53;;;;;;;9.57;4.20;;;;;;;;;;4994454;28;20105;-65
2021/12/08 12:24:28;;;;;;;7.47;2.13;;;;;;;;;;4994614;28;20097;-65
2021/12/08 12:27:04;;;;;;;10.90;1.92;;;;;;;;;;4994730;28;20376;-66
2021/12/08 12:29:51;;;;;;;5.70;1.05;;;;;;;;;;4994588;28;20502;-65
2021/12/08 12:32:23;;;;;;;6.87;1.20;;;;;;;;;;4994660;28;20054;-65
2021/12/08 12:34:53;;;;;;;7.00;1.42;;;;;;;;;;4994513;28;20414;-65
2021/12/08 12:37:30;;;;;;;8.07;1.52;;;;;;;;;;4993484;28;20065;-65
2021/12/08 12:39:58;;;;;;;8.02;1.45;;;;;;;;;;4994125;28;20100;-65
2021/12/08 12:42:25;;;;;;;8.27;1.98;;;;;;;;;;4994100;28;20069;-65
2021/12/08 12:44:57;;;;;;;11.57;1.88;;;;;;;;;;4994265;28;20046;-65
2021/12/08 12:47:29;;;;;;;11.68;3.55;;;;;;;;;;4993965;28;20046;-65
2021/12/08 12:49:58;;;;;;;8.35;1.92;;;;;;;;;;4994094;28;20050;-65
2021/12/08 12:52:32;;;;;;;8.75;1.83;;;;;;;;;;4993883;28;20058;-65
2021/12/08 12:55:06;;;;;;;5.15;2.10;;;;;;;;;;4993861;28;20077;-65
2021/12/08 12:57:32;;;;;;;6.28;1.67;;;;;;;;;;4993770;28;20062;-65
2021/12/08 12:59:59;;;;;;;7.45;1.70;;;;;;;;;;4993899;28;20065;-65
2021/12/08 13:02:33;;;;;;;7.75;1.85;;;;;;;;;;4993753;28;20049;-66
2021/12/08 13:05:08;;;;;;;6.88;2.22;;;;;;;;;;4993966;28;20055;-65
2021/12/08 13:07:39;;;;;;;10.35;2.05;;;;;;;;;;4993971;28;20093;-65
2021/12/08 13:10:10;;;;;;;6.78;1.55;;;;;;;;;;4993482;28;20391;-66
2021/12/08 13:12:36;;;;;;;4.45;1.15;;;;;;;;;;4993531;28;20100;-65
2021/12/08 13:15:14;;;;;;;7.28;1.60;;;;;;;;;;4993557;28;20454;-65
2021/12/08 13:17:59;;;;;;;5.38;1.30;;;;;;;;;;4993439;28;20068;-65
2021/12/08 13:20:26;;;;;;;8.02;1.30;;;;;;;;;;4993349;28;20136;-65
2021/12/08 13:22:55;;;;;;;5.57;1.35;;;;;;;;;;4993444;28;20042;-65
2021/12/08 13:28:17;;;;;;;9.50;1.70;;;;;;;;;;4993289;28;20046;-65
2021/12/08 13:30:46;;;;;;;5.82;1.25;;;;;;;;;;4993498;28;20058;-65
2021/12/08 13:33:27;;;;;;;7.68;1.70;;;;;;;;;;4993336;28;20078;-66
2021/12/08 13:35:54;;;;;;;7.50;2.92;;;;;;;;;;4993122;28;20054;-65
2021/12/08 13:38:21;;;;;;;10.88;3.72;;;;;;;;;;4993188;28;20088;-65
2021/12/08 13:40:50;;;;;;;12.00;3.47;;;;;;;;;;4992923;28;20494;-65
2021/12/08 13:43:37;;;;;;;19.35;7.82;;;;;;;;;;4993231;28;20046;-65
2021/12/08 13:46:04;;;;;;;14.55;7.85;;;;;;;;;;4992909;28;20096;-65
2021/12/08 13:48:31;;;;;;;13.45;6.82;;;;;;;;;;4993218;28;20042;-65
2021/12/08 13:51:19;;;;;;;10.95;4.68;;;;;;;;;;4993199;28;20387;-66
2021/12/08 13:54:05;;;;;;;12.70;7.93;;;;;;;;;;4993099;28;20057;-65
2021/12/08 13:56:38;;;;;;;9.30;3.63;;;;;;;;;;4992664;28;20127;-65
2021/12/08 13:59:05;;;;;;;11.57;5.40;;;;;;;;;;4992683;28;20687;-65
2021/12/08 14:01:36;;;;;;;10.63;2.63;;;;;;;;;;4992803;28;20122;-65
2021/12/08 14:04:14;;;;;;;7.95;3.30;;;;;;;;;;4993017;28;20046;-65
2021/12/08 14:06:40;;;;;;;;;;;;;;;;;;4993347;28;20432;-65
2021/12/08 14:09:13;;;;;;;11.05;2.97;;;;;;;;;;4992557;28;20348;-65
2021/12/08 14:11:40;;;;;;;10.57;4.65;;;;;;;;;;4992627;28;20066;-65
2021/12/08 14:14:08;;;;;;;13.63;2.70;;;;;;;;;;4992384;28;20387;-65
2021/12/08 14:16:34;;;;;;;;;;;;;;;;;;4993148;28;20054;-65
2021/12/08 14:19:01;;;;;;;11.05;2.50;;;;;;;;;;4992672;28;19925;-65
2021/12/08 14:21:40;;;;;;;10.15;2.15;;;;;;;;;;4992326;28;20050;-65
2021/12/08 14:24:26;;;;;;;9.65;2.63;;;;;;;;;;4992232;28;20050;-65
2021/12/08 14:26:52;;;;;;;8.70;1.70;;;;;;;;;;4992626;28;20054;-65
2021/12/08 14:29:20;;;;;;;9.68;2.13;;;;;;;;;;4992499;28;20104;-65
2021/12/08 14:31:49;;;;;;;8.55;2.20;;;;;;;;;;4992311;28;20065;-65
2021/12/08 14:34:15;;;;;;;9.88;2.78;;;;;;;;;;4992215;28;20463;-65
2021/12/08 14:36:51;;;;;;;13.70;5.22;;;;;;;;;;4992246;28;20054;-64
2021/12/08 14:39:24;;;;;;;10.02;2.03;;;;;;;;;;4992398;28;20094;-65
2021/12/08 14:41:53;;;;;;;8.43;2.63;;;;;;;;;;5007133;28;20058;-64
2021/12/08 14:44:24;;;;;;;8.75;1.98;;;;;;;;;;4992376;28;20054;-65
2021/12/08 14:46:53;;;;;;;11.57;1.98;;;;;;;;;;4992079;28;20080;-64
2021/12/08 14:49:21;;;;;;;11.05;2.40;;;;;;;;;;4992140;28;20123;-64
2021/12/08 14:51:53;;;;;;;10.65;2.50;;;;;;;;;;4992074;28;20047;-64
2021/12/08 14:54:24;;;;;;;8.43;1.83;;;;;;;;;;4992178;28;20337;-64
2021/12/08 14:57:00;;;;;;;14.00;2.33;;;;;;;;;;4992020;28;20058;-65
2021/12/08 14:59:27;;;;;;;11.43;2.35;;;;;;;;;;4992460;28;20058;-64
2021/12/08 15:01:54;;;;;;;12.68;2.15;;;;;;;;;;4995931;28;20042;-65
2021/12/08 15:04:21;;;;;;;9.18;1.60;;;;;;;;;;4996233;28;20069;-65
2021/12/08 15:06:51;;;;;;;8.77;2.00;;;;;;;;;;5011028;28;20439;-65
2021/12/08 15:09:18;;;;;;;13.63;1.88;;;;;;;;;;4996106;28;20117;-65
2021/12/08 15:11:44;;;;;;;10.48;2.75;;;;;;;;;;4996122;28;20058;-65
2021/12/08 15:14:15;;;;;;;10.18;2.08;;;;;;;;;;4994451;28;20112;-65
2021/12/08 15:16:49;;;;;;;14.82;4.30;;;;;;;;;;4994449;28;20108;-65
2021/12/08 15:19:15;;;;;;;5.60;1.67;;;;;;;;;;4995928;28;20128;-64
2021/12/08 15:21:46;;;;;;;8.93;1.95;;;;;;;;;;4995824;28;20458;-64
2021/12/08 15:24:13;;;;;;;17.25;2.40;;;;;;;;;;4995667;28;20453;-65
2021/12/08 15:26:40;;;;;;;9.82;1.58;;;;;;;;;;4995605;28;20046;-64
2021/12/08 15:29:17;;;;;;;6.93;1.42;;;;;;;;;;4995654;28;20100;-64
2021/12/08 15:31:47;;;;;;;12.38;2.63;;;;;;;;;;4995525;28;20058;-65
2021/12/08 15:34:22;;;;;;;8.25;2.00;;;;;;;;;;4995688;28;20108;-64
2021/12/08 15:37:18;;;;;;;8.25;1.75;;;;;;;;;;4995655;28;20124;-65
2021/12/08 15:39:45;;;;;;;10.32;1.73;;;;;;;;;;4987889;28;20050;-64
2021/12/08 15:42:14;;;;;;;13.05;2.15;;;;;;;;;;4995531;28;20062;-65
2021/12/08 15:44:41;;;;;;;14.73;2.40;;;;;;;;;;4995362;28;20113;-65